sensor_id;sensor_type;location;lat;lon;timestamp;pressure;altitude;pressure_sealevel;temperature;humidity
54453;BME280;40363;52.270;10.546;2023-04-27T00:02:01;77387.59;;;-147.06;63.78
54453;BME280;40363;52.270;10.546;2023-04-27T00:04:28;77397.88;;;-147.06;64.34
54453;BME280;40363;52.270;10.546;2023-04-27T00:06:54;77399.94;;;-147.06;64.49
54453;BME280;40363;52.270;10.546;2023-04-27T00:09:21;77404.03;;;-147.06;64.87
54453;BME280;40363;52.270;10.546;2023-04-27T00:11:47;77408.16;;;-147.06;64.94
54453;BME280;40363;52.270;10.546;2023-04-27T00:14:14;77408.16;;;-147.06;65.01
54453;BME280;40363;52.270;10.546;2023-04-27T00:16:41;77412.25;;;-147.06;65.53
54453;BME280;40363;52.270;10.546;2023-04-27T00:19:11;77422.53;;;-147.06;66.03
54453;BME280;40363;52.270;10.546;2023-04-27T00:21:38;77420.50;;;-147.06;66.04
54453;BME280;40363;52.270;10.546;2023-04-27T00:24:05;77410.22;;;-147.06;66.28
54453;BME280;40363;52.270;10.546;2023-04-27T00:26:32;77414.31;;;-147.06;66.31
54453;BME280;40363;52.270;10.546;2023-04-27T00:28:58;77420.50;;;-147.06;66.36
54453;BME280;40363;52.270;10.546;2023-04-27T00:31:25;77414.31;;;-147.06;66.59
54453;BME280;40363;52.270;10.546;2023-04-27T00:33:51;77416.38;;;-147.06;66.63
54453;BME280;40363;52.270;10.546;2023-04-27T00:36:19;77414.31;;;-147.06;66.62
54453;BME280;40363;52.270;10.546;2023-04-27T00:38:46;77420.50;;;-147.06;66.15
54453;BME280;40363;52.270;10.546;2023-04-27T00:41:13;77424.59;;;-147.06;66.35
54453;BME280;40363;52.270;10.546;2023-04-27T00:43:43;77420.50;;;-147.06;66.40
54453;BME280;40363;52.270;10.546;2023-04-27T00:46:11;77430.75;;;-147.06;66.80
54453;BME280;40363;52.270;10.546;2023-04-27T00:48:40;77430.75;;;-147.06;66.87
54453;BME280;40363;52.270;10.546;2023-04-27T00:51:07;77432.81;;;-147.06;66.65
54453;BME280;40363;52.270;10.546;2023-04-27T00:53:35;77424.59;;;-147.06;66.70
54453;BME280;40363;52.270;10.546;2023-04-27T00:56:02;77436.94;;;-147.06;66.57
54453;BME280;40363;52.270;10.546;2023-04-27T00:58:29;77447.22;;;-147.06;67.08
54453;BME280;40363;52.270;10.546;2023-04-27T01:00:55;77439.00;;;-147.06;66.85
54453;BME280;40363;52.270;10.546;2023-04-27T01:03:22;77434.88;;;-147.06;66.76
54453;BME280;40363;52.270;10.546;2023-04-27T01:05:48;77443.09;;;-147.06;66.62
54453;BME280;40363;52.270;10.546;2023-04-27T01:08:15;77439.00;;;-147.06;66.72
54453;BME280;40363;52.270;10.546;2023-04-27T01:10:43;77443.09;;;-147.06;67.06
54453;BME280;40363;52.270;10.546;2023-04-27T01:13:10;77449.28;;;-147.06;67.21
54453;BME280;40363;52.270;10.546;2023-04-27T01:15:36;77455.44;;;-147.06;67.30
54453;BME280;40363;52.270;10.546;2023-04-27T01:18:03;77459.53;;;-147.06;67.65
54453;BME280;40363;52.270;10.546;2023-04-27T01:20:29;77453.38;;;-147.06;67.93
54453;BME280;40363;52.270;10.546;2023-04-27T01:22:57;77455.44;;;-147.06;68.04
54453;BME280;40363;52.270;10.546;2023-04-27T01:25:25;77451.31;;;-147.06;68.12
54453;BME280;40363;52.270;10.546;2023-04-27T01:27:51;77445.16;;;-147.06;68.55
54453;BME280;40363;52.270;10.546;2023-04-27T01:30:19;77457.50;;;-147.06;68.93
54453;BME280;40363;52.270;10.546;2023-04-27T01:32:46;77461.59;;;-147.06;68.76
54453;BME280;40363;52.270;10.546;2023-04-27T01:35:13;77451.31;;;-147.06;69.00
54453;BME280;40363;52.270;10.546;2023-04-27T01:37:40;77467.78;;;-147.06;69.13
54453;BME280;40363;52.270;10.546;2023-04-27T01:40:07;77471.88;;;-147.06;69.14
54453;BME280;40363;52.270;10.546;2023-04-27T01:42:35;77469.81;;;-147.06;69.28
54453;BME280;40363;52.270;10.546;2023-04-27T01:45:03;77480.09;;;-147.06;69.97
54453;BME280;40363;52.270;10.546;2023-04-27T01:47:29;77490.38;;;-147.06;69.82
54453;BME280;40363;52.270;10.546;2023-04-27T01:49:56;77492.44;;;-147.06;69.97
54453;BME280;40363;52.270;10.546;2023-04-27T01:52:22;77494.50;;;-147.06;70.11
54453;BME280;40363;52.270;10.546;2023-04-27T01:54:49;77502.72;;;-147.06;70.36
54453;BME280;40363;52.270;10.546;2023-04-27T01:57:15;77492.44;;;-147.06;70.62
54453;BME280;40363;52.270;10.546;2023-04-27T01:59:43;77513.00;;;-147.06;70.49
54453;BME280;40363;52.270;10.546;2023-04-27T02:02:10;77508.88;;;-147.06;70.49
54453;BME280;40363;52.270;10.546;2023-04-27T02:04:37;77519.16;;;-147.06;70.64
54453;BME280;40363;52.270;10.546;2023-04-27T02:07:03;77515.06;;;-147.06;70.80
54453;BME280;40363;52.270;10.546;2023-04-27T02:09:30;77517.13;;;-147.06;70.51
54453;BME280;40363;52.270;10.546;2023-04-27T02:11:57;77523.28;;;-147.06;70.39
54453;BME280;40363;52.270;10.546;2023-04-27T02:14:24;77533.56;;;-147.06;69.92
54453;BME280;40363;52.270;10.546;2023-04-27T02:16:52;77535.63;;;-147.06;70.00
54453;BME280;40363;52.270;10.546;2023-04-27T02:19:18;77537.66;;;-147.06;70.13
54453;BME280;40363;52.270;10.546;2023-04-27T02:21:45;77547.94;;;-147.06;70.41
54453;BME280;40363;52.270;10.546;2023-04-27T02:24:11;77547.94;;;-147.06;70.23
54453;BME280;40363;52.270;10.546;2023-04-27T02:26:38;77550.00;;;-147.06;70.04
54453;BME280;40363;52.270;10.546;2023-04-27T02:29:04;77554.13;;;-147.06;70.61
54453;BME280;40363;52.270;10.546;2023-04-27T02:31:31;77568.50;;;-147.06;70.49
54453;BME280;40363;52.270;10.546;2023-04-27T02:33:59;77564.41;;;-147.06;70.35
54453;BME280;40363;52.270;10.546;2023-04-27T02:36:25;77576.72;;;-147.06;70.59
54453;BME280;40363;52.270;10.546;2023-04-27T02:38:52;77562.34;;;-147.06;70.51
54453;BME280;40363;52.270;10.546;2023-04-27T02:41:19;77572.63;;;-147.06;71.01
54453;BME280;40363;52.270;10.546;2023-04-27T02:43:45;77578.78;;;-147.06;70.96
54453;BME280;40363;52.270;10.546;2023-04-27T02:46:12;77566.44;;;-147.06;71.08
54453;BME280;40363;52.270;10.546;2023-04-27T02:48:39;77578.78;;;-147.06;71.25
54453;BME280;40363;52.270;10.546;2023-04-27T02:51:07;77580.84;;;-147.06;71.11
54453;BME280;40363;52.270;10.546;2023-04-27T02:53:33;77587.00;;;-147.06;71.29
54453;BME280;40363;52.270;10.546;2023-04-27T02:56:00;77587.00;;;-147.06;71.29
54453;BME280;40363;52.270;10.546;2023-04-27T02:58:27;77587.00;;;-147.06;71.37
54453;BME280;40363;52.270;10.546;2023-04-27T03:00:53;77589.06;;;-147.06;71.68
54453;BME280;40363;52.270;10.546;2023-04-27T03:03:20;77587.00;;;-147.06;71.40
54453;BME280;40363;52.270;10.546;2023-04-27T03:05:47;77595.25;;;-147.06;71.55
54453;BME280;40363;52.270;10.546;2023-04-27T03:08:15;77601.41;;;-147.06;71.92
54453;BME280;40363;52.270;10.546;2023-04-27T03:10:42;77605.50;;;-147.06;71.84
54453;BME280;40363;52.270;10.546;2023-04-27T03:13:08;77613.75;;;-147.06;71.30
54453;BME280;40363;52.270;10.546;2023-04-27T03:15:35;77609.63;;;-147.06;71.45
54453;BME280;40363;52.270;10.546;2023-04-27T03:18:02;77611.69;;;-147.06;71.60
54453;BME280;40363;52.270;10.546;2023-04-27T03:20:29;77607.56;;;-147.06;72.06
54453;BME280;40363;52.270;10.546;2023-04-27T03:22:56;77601.41;;;-147.06;71.50
54453;BME280;40363;52.270;10.546;2023-04-27T03:25:24;77607.56;;;-147.06;72.22
54453;BME280;40363;52.270;10.546;2023-04-27T03:27:51;77619.91;;;-147.06;72.21
54453;BME280;40363;52.270;10.546;2023-04-27T03:30:17;77615.78;;;-147.06;72.60
54453;BME280;40363;52.270;10.546;2023-04-27T03:32:44;77636.34;;;-147.06;72.71
54453;BME280;40363;52.270;10.546;2023-04-27T03:35:10;77636.34;;;-147.06;72.52
54453;BME280;40363;52.270;10.546;2023-04-27T03:37:37;77632.25;;;-147.06;72.07
54453;BME280;40363;52.270;10.546;2023-04-27T03:40:05;77644.59;;;-147.06;72.50
54453;BME280;40363;52.270;10.546;2023-04-27T03:42:35;77644.59;;;-147.06;72.86
54453;BME280;40363;52.270;10.546;2023-04-27T03:45:02;77673.38;;;-147.06;73.26
54453;BME280;40363;52.270;10.546;2023-04-27T03:47:29;77681.59;;;-147.06;73.28
54453;BME280;40363;52.270;10.546;2023-04-27T03:49:59;77681.59;;;-147.06;73.28
54453;BME280;40363;52.270;10.546;2023-04-27T03:52:25;77681.59;;;-147.06;73.21
54453;BME280;40363;52.270;10.546;2023-04-27T03:54:52;77679.53;;;-147.06;73.18
54453;BME280;40363;52.270;10.546;2023-04-27T03:57:19;77691.88;;;-147.06;73.44
54453;BME280;40363;52.270;10.546;2023-04-27T03:59:47;77687.75;;;-147.06;73.79
54453;BME280;40363;52.270;10.546;2023-04-27T04:02:13;77706.25;;;-147.06;74.09
54453;BME280;40363;52.270;10.546;2023-04-27T04:04:42;77708.31;;;-147.06;74.18
54453;BME280;40363;52.270;10.546;2023-04-27T04:07:09;77716.53;;;-147.06;74.56
54453;BME280;40363;52.270;10.546;2023-04-27T04:09:36;77712.44;;;-147.06;74.45
54453;BME280;40363;52.270;10.546;2023-04-27T04:12:03;77710.38;;;-147.06;74.30
54453;BME280;40363;52.270;10.546;2023-04-27T04:14:29;77708.31;;;-147.06;74.58
54453;BME280;40363;52.270;10.546;2023-04-27T04:16:57;77710.38;;;-147.06;74.76
54453;BME280;40363;52.270;10.546;2023-04-27T04:19:24;77712.44;;;-147.06;74.77
54453;BME280;40363;52.270;10.546;2023-04-27T04:21:51;77714.47;;;-147.06;74.76
54453;BME280;40363;52.270;10.546;2023-04-27T04:24:18;77716.53;;;-147.06;74.94
54453;BME280;40363;52.270;10.546;2023-04-27T04:26:45;77704.19;;;-147.06;74.66
54453;BME280;40363;52.270;10.546;2023-04-27T04:29:12;77706.25;;;-147.06;74.91
54453;BME280;40363;52.270;10.546;2023-04-27T04:31:39;77693.94;;;-147.06;74.58
54453;BME280;40363;52.270;10.546;2023-04-27T04:34:07;77698.03;;;-147.06;74.76
54453;BME280;40363;52.270;10.546;2023-04-27T04:36:34;77706.25;;;-147.06;75.14
54453;BME280;40363;52.270;10.546;2023-04-27T04:39:02;77702.16;;;-147.06;75.01
54453;BME280;40363;52.270;10.546;2023-04-27T04:41:29;77710.38;;;-147.06;75.16
54453;BME280;40363;52.270;10.546;2023-04-27T04:43:56;77706.25;;;-147.06;75.19
54453;BME280;40363;52.270;10.546;2023-04-27T04:46:23;77714.47;;;-147.06;75.28
54453;BME280;40363;52.270;10.546;2023-04-27T04:48:50;77712.44;;;-147.06;75.38
54453;BME280;40363;52.270;10.546;2023-04-27T04:51:18;77718.59;;;-147.06;75.76
54453;BME280;40363;52.270;10.546;2023-04-27T04:53:45;77718.59;;;-147.06;75.56
54453;BME280;40363;52.270;10.546;2023-04-27T04:56:12;77722.72;;;-147.06;75.69
54453;BME280;40363;52.270;10.546;2023-04-27T04:58:41;77718.59;;;-147.06;75.84
54453;BME280;40363;52.270;10.546;2023-04-27T05:01:08;77687.75;;;-147.06;75.45
54453;BME280;40363;52.270;10.546;2023-04-27T05:03:35;77681.59;;;-147.06;74.71
54453;BME280;40363;52.270;10.546;2023-04-27T05:06:01;77667.19;;;-147.06;73.95
54453;BME280;40363;52.270;10.546;2023-04-27T05:08:29;77673.38;;;-147.06;73.93
54453;BME280;40363;52.270;10.546;2023-04-27T05:10:56;77661.03;;;-147.06;73.57
54453;BME280;40363;52.270;10.546;2023-04-27T05:13:22;77646.63;;;-147.06;72.65
54453;BME280;40363;52.270;10.546;2023-04-27T05:15:50;77661.03;;;-147.06;72.71
54453;BME280;40363;52.270;10.546;2023-04-27T05:18:17;77661.03;;;-147.06;72.67
54453;BME280;40363;52.270;10.546;2023-04-27T05:20:44;77669.25;;;-147.06;72.47
54453;BME280;40363;52.270;10.546;2023-04-27T05:23:11;77673.38;;;-147.06;72.85
54453;BME280;40363;52.270;10.546;2023-04-27T05:25:38;77669.25;;;-147.06;72.86
54453;BME280;40363;52.270;10.546;2023-04-27T05:28:07;77669.25;;;-147.06;72.65
54453;BME280;40363;52.270;10.546;2023-04-27T05:30:34;77658.97;;;-147.06;71.64
54453;BME280;40363;52.270;10.546;2023-04-27T05:33:01;77652.81;;;-147.06;71.78
54453;BME280;40363;52.270;10.546;2023-04-27T05:35:28;77646.63;;;-147.06;71.54
54453;BME280;40363;52.270;10.546;2023-04-27T05:37:54;77644.59;;;-147.06;70.83
54453;BME280;40363;52.270;10.546;2023-04-27T05:40:21;77648.69;;;-147.06;71.34
54453;BME280;40363;52.270;10.546;2023-04-27T05:42:49;77648.69;;;-147.06;70.59
54453;BME280;40363;52.270;10.546;2023-04-27T05:45:16;77640.47;;;-147.06;70.64
54453;BME280;40363;52.270;10.546;2023-04-27T05:47:43;77621.97;;;-147.06;69.90
54453;BME280;40363;52.270;10.546;2023-04-27T05:50:10;77613.75;;;-147.06;69.57
54453;BME280;40363;52.270;10.546;2023-04-27T05:52:37;77591.13;;;-147.06;68.93
54453;BME280;40363;52.270;10.546;2023-04-27T05:55:04;77587.00;;;-147.06;68.36
54453;BME280;40363;52.270;10.546;2023-04-27T05:57:32;77566.44;;;-147.06;67.99
54453;BME280;40363;52.270;10.546;2023-04-27T05:59:59;77537.66;;;-147.06;67.02
54453;BME280;40363;52.270;10.546;2023-04-27T06:02:26;77545.91;;;-147.06;65.72
54453;BME280;40363;52.270;10.546;2023-04-27T06:04:53;77525.34;;;-147.06;64.91
54453;BME280;40363;52.270;10.546;2023-04-27T06:07:22;77504.78;;;-147.06;63.98
54453;BME280;40363;52.270;10.546;2023-04-27T06:09:49;77484.22;;;-147.06;63.64
54453;BME280;40363;52.270;10.546;2023-04-27T06:12:15;77463.66;;;-147.06;62.36
54453;BME280;40363;52.270;10.546;2023-04-27T06:14:42;77459.53;;;-147.06;62.05
54453;BME280;40363;52.270;10.546;2023-04-27T06:17:10;77428.72;;;-147.06;61.47
54453;BME280;40363;52.270;10.546;2023-04-27T06:19:36;77401.97;;;-147.06;59.51
54453;BME280;40363;52.270;10.546;2023-04-27T06:22:03;77358.81;;;-147.06;58.22
54453;BME280;40363;52.270;10.546;2023-04-27T06:24:30;77303.31;;;-147.06;56.19
54453;BME280;40363;52.270;10.546;2023-04-27T06:26:56;77262.19;;;-147.06;55.38
54453;BME280;40363;52.270;10.546;2023-04-27T06:29:23;77120.34;;;-147.06;52.94
54453;BME280;40363;52.270;10.546;2023-04-27T06:31:50;77005.22;;;-147.06;49.44
54453;BME280;40363;52.270;10.546;2023-04-27T06:34:18;76943.56;;;-147.06;46.87
54453;BME280;40363;52.270;10.546;2023-04-27T06:36:44;76834.63;;;-147.06;45.27
54453;BME280;40363;52.270;10.546;2023-04-27T06:39:11;76809.94;;;-147.06;44.34
54453;BME280;40363;52.270;10.546;2023-04-27T06:41:37;76752.38;;;-147.06;43.42
54453;BME280;40363;52.270;10.546;2023-04-27T06:44:04;76795.56;;;-147.06;42.52
54453;BME280;40363;52.270;10.546;2023-04-27T06:46:31;76760.63;;;-147.06;42.45
54453;BME280;40363;52.270;10.546;2023-04-27T06:48:57;76637.28;;;-147.06;42.96
54453;BME280;40363;52.270;10.546;2023-04-27T06:51:26;76651.66;;;-147.06;40.07
54453;BME280;40363;52.270;10.546;2023-04-27T06:53:56;76579.72;;;-147.06;40.12
54453;BME280;40363;52.270;10.546;2023-04-27T06:56:22;76600.28;;;-147.06;39.68
54453;BME280;40363;52.270;10.546;2023-04-27T06:58:49;76546.84;;;-147.06;38.93
54453;BME280;40363;52.270;10.546;2023-04-27T07:01:15;76534.50;;;-147.06;38.70
54453;BME280;40363;52.270;10.546;2023-04-27T07:03:42;76476.97;;;-147.06;37.52
54453;BME280;40363;52.270;10.546;2023-04-27T07:06:09;76489.28;;;-147.06;37.36
54453;BME280;40363;52.270;10.546;2023-04-27T07:08:37;76561.22;;;-147.06;38.00
54453;BME280;40363;52.270;10.546;2023-04-27T07:11:03;76462.56;;;-147.06;37.17
54453;BME280;40363;52.270;10.546;2023-04-27T07:13:30;76587.94;;;-147.06;38.11
54453;BME280;40363;52.270;10.546;2023-04-27T07:15:57;76419.41;;;-147.06;36.67
54453;BME280;40363;52.270;10.546;2023-04-27T07:18:25;76409.13;;;-147.06;35.92
54453;BME280;40363;52.270;10.546;2023-04-27T07:20:52;76585.91;;;-147.06;37.52
54453;BME280;40363;52.270;10.546;2023-04-27T07:23:18;76752.38;;;-147.06;39.01
54453;BME280;40363;52.270;10.546;2023-04-27T07:25:46;76557.13;;;-147.06;37.56
54453;BME280;40363;52.270;10.546;2023-04-27T07:28:13;76464.63;;;-147.06;36.92
54453;BME280;40363;52.270;10.546;2023-04-27T07:30:40;76390.63;;;-147.06;35.41
54453;BME280;40363;52.270;10.546;2023-04-27T07:33:10;76481.06;;;-147.06;35.69
54453;BME280;40363;52.270;10.546;2023-04-27T07:35:37;76775.00;;;-147.06;38.60
54453;BME280;40363;52.270;10.546;2023-04-27T07:38:04;76957.94;;;-147.06;40.88
54453;BME280;40363;52.270;10.546;2023-04-27T07:40:31;76731.84;;;-147.06;38.72
54453;BME280;40363;52.270;10.546;2023-04-27T07:43:00;76499.56;;;-147.06;36.42
54453;BME280;40363;52.270;10.546;2023-04-27T07:45:26;76413.25;;;-147.06;35.36
54453;BME280;40363;52.270;10.546;2023-04-27T07:47:56;76361.84;;;-147.06;34.58
54453;BME280;40363;52.270;10.546;2023-04-27T07:50:24;76427.63;;;-147.06;34.06
54453;BME280;40363;52.270;10.546;2023-04-27T07:52:51;76534.50;;;-147.06;35.17
54453;BME280;40363;52.270;10.546;2023-04-27T07:55:18;76760.63;;;-147.06;38.17
54453;BME280;40363;52.270;10.546;2023-04-27T07:57:45;76604.41;;;-147.06;36.75
54453;BME280;40363;52.270;10.546;2023-04-27T08:00:14;76505.75;;;-147.06;36.02
54453;BME280;40363;52.270;10.546;2023-04-27T08:02:41;76429.69;;;-147.06;35.57
54453;BME280;40363;52.270;10.546;2023-04-27T08:05:08;76491.34;;;-147.06;35.12
54453;BME280;40363;52.270;10.546;2023-04-27T08:07:34;76758.56;;;-147.06;37.65
54453;BME280;40363;52.270;10.546;2023-04-27T08:10:01;76842.84;;;-147.06;39.10
54453;BME280;40363;52.270;10.546;2023-04-27T08:12:28;76888.06;;;-147.06;40.34
54453;BME280;40363;52.270;10.546;2023-04-27T08:14:54;76974.38;;;-147.06;41.21
54453;BME280;40363;52.270;10.546;2023-04-27T08:17:22;76820.22;;;-147.06;39.25
54453;BME280;40363;52.270;10.546;2023-04-27T08:19:49;76846.94;;;-147.06;38.24
54453;BME280;40363;52.270;10.546;2023-04-27T08:22:16;76678.41;;;-147.06;36.56
54453;BME280;40363;52.270;10.546;2023-04-27T08:24:42;76587.94;;;-147.06;35.91
54453;BME280;40363;52.270;10.546;2023-04-27T08:27:09;76489.28;;;-147.06;34.18
54453;BME280;40363;52.270;10.546;2023-04-27T08:29:36;76470.78;;;-147.06;34.04
54453;BME280;40363;52.270;10.546;2023-04-27T08:32:03;76563.28;;;-147.06;34.33
54453;BME280;40363;52.270;10.546;2023-04-27T08:34:31;76398.84;;;-147.06;33.27
54453;BME280;40363;52.270;10.546;2023-04-27T08:36:58;76345.41;;;-147.06;32.44
54453;BME280;40363;52.270;10.546;2023-04-27T08:39:26;76314.59;;;-147.06;32.55
54453;BME280;40363;52.270;10.546;2023-04-27T08:41:53;76316.66;;;-147.06;32.99
54453;BME280;40363;52.270;10.546;2023-04-27T08:44:20;76425.56;;;-147.06;33.44
54453;BME280;40363;52.270;10.546;2023-04-27T08:46:46;76516.00;;;-147.06;34.38
54453;BME280;40363;52.270;10.546;2023-04-27T08:49:13;76627.00;;;-147.06;35.32
54453;BME280;40363;52.270;10.546;2023-04-27T08:51:44;76812.00;;;-147.06;37.05
54453;BME280;40363;52.270;10.546;2023-04-27T08:54:10;76999.06;;;-147.06;39.67
54453;BME280;40363;52.270;10.546;2023-04-27T08:56:38;77060.72;;;-147.06;40.95
54453;BME280;40363;52.270;10.546;2023-04-27T08:59:12;77054.56;;;-147.06;41.11
54453;BME280;40363;52.270;10.546;2023-04-27T09:01:42;76990.84;;;-147.06;38.98
54453;BME280;40363;52.270;10.546;2023-04-27T09:04:09;76715.38;;;-147.06;36.24
54453;BME280;40363;52.270;10.546;2023-04-27T09:06:36;76571.50;;;-147.06;34.98
54453;BME280;40363;52.270;10.546;2023-04-27T09:09:04;76649.63;;;-147.06;34.26
54453;BME280;40363;52.270;10.546;2023-04-27T09:11:34;76423.53;;;-147.06;33.14
54453;BME280;40363;52.270;10.546;2023-04-27T09:14:03;76370.09;;;-147.06;33.02
54453;BME280;40363;52.270;10.546;2023-04-27T09:16:52;76386.53;;;-147.06;32.62
54453;BME280;40363;52.270;10.546;2023-04-27T09:19:24;76577.69;;;-147.06;33.11
54453;BME280;40363;52.270;10.546;2023-04-27T09:22:21;76731.84;;;-147.06;35.36
54453;BME280;40363;52.270;10.546;2023-04-27T09:24:51;76873.66;;;-147.06;36.81
54453;BME280;40363;52.270;10.546;2023-04-27T09:27:22;76770.88;;;-147.06;36.78
54453;BME280;40363;52.270;10.546;2023-04-27T09:29:49;76674.28;;;-147.06;34.95
54453;BME280;40363;52.270;10.546;2023-04-27T09:32:16;76596.19;;;-147.06;34.64
54453;BME280;40363;52.270;10.546;2023-04-27T09:34:45;76513.97;;;-147.06;33.52
54453;BME280;40363;52.270;10.546;2023-04-27T09:37:12;76452.28;;;-147.06;33.71
54453;BME280;40363;52.270;10.546;2023-04-27T09:39:40;76460.53;;;-147.06;33.05
54453;BME280;40363;52.270;10.546;2023-04-27T09:42:10;76454.34;;;-147.06;32.79
54453;BME280;40363;52.270;10.546;2023-04-27T09:44:37;76365.97;;;-147.06;31.72
54453;BME280;40363;52.270;10.546;2023-04-27T09:47:04;76328.97;;;-147.06;32.03
54453;BME280;40363;52.270;10.546;2023-04-27T09:49:34;76374.19;;;-147.06;31.63
54453;BME280;40363;52.270;10.546;2023-04-27T09:52:33;76349.53;;;-147.06;31.60
54453;BME280;40363;52.270;10.546;2023-04-27T09:55:01;76326.91;;;-147.06;30.72
54453;BME280;40363;52.270;10.546;2023-04-27T09:57:36;76400.91;;;-147.06;30.83
54453;BME280;40363;52.270;10.546;2023-04-27T10:00:19;76608.50;;;-147.06;32.26
54453;BME280;40363;52.270;10.546;2023-04-27T10:03:04;76756.50;;;-147.06;33.74
54453;BME280;40363;52.270;10.546;2023-04-27T10:08:25;76797.63;;;-147.06;35.49
54453;BME280;40363;52.270;10.546;2023-04-27T10:10:52;76812.00;;;-147.06;35.64
54453;BME280;40363;52.270;10.546;2023-04-27T10:13:21;76855.16;;;-147.06;35.64
54453;BME280;40363;52.270;10.546;2023-04-27T10:15:49;76805.84;;;-147.06;34.74
54453;BME280;40363;52.270;10.546;2023-04-27T10:18:29;76649.63;;;-147.06;32.95
54453;BME280;40363;52.270;10.546;2023-04-27T10:20:56;76633.16;;;-147.06;32.06
54453;BME280;40363;52.270;10.546;2023-04-27T10:23:24;76596.19;;;-147.06;31.20
54453;BME280;40363;52.270;10.546;2023-04-27T10:25:52;76600.28;;;-147.06;31.67
54453;BME280;40363;52.270;10.546;2023-04-27T10:28:22;76616.72;;;-147.06;31.22
54453;BME280;40363;52.270;10.546;2023-04-27T10:30:49;76760.63;;;-147.06;32.60
54453;BME280;40363;52.270;10.546;2023-04-27T10:33:17;76820.22;;;-147.06;34.40
54453;BME280;40363;52.270;10.546;2023-04-27T10:35:53;76892.16;;;-147.06;34.33
54453;BME280;40363;52.270;10.546;2023-04-27T10:38:21;76904.50;;;-147.06;35.29
54453;BME280;40363;52.270;10.546;2023-04-27T10:40:56;76881.88;;;-147.06;35.92
54453;BME280;40363;52.270;10.546;2023-04-27T10:43:28;76904.50;;;-147.06;36.31
54453;BME280;40363;52.270;10.546;2023-04-27T10:46:06;76892.16;;;-147.06;36.55
54453;BME280;40363;52.270;10.546;2023-04-27T10:48:33;76875.72;;;-147.06;36.71
54453;BME280;40363;52.270;10.546;2023-04-27T10:51:00;76879.84;;;-147.06;36.61
54453;BME280;40363;52.270;10.546;2023-04-27T10:53:38;76707.16;;;-147.06;35.34
54453;BME280;40363;52.270;10.546;2023-04-27T10:59:34;76542.72;;;-147.06;32.85
54453;BME280;40363;52.270;10.546;2023-04-27T11:02:25;76641.41;;;-147.06;32.46
54453;BME280;40363;52.270;10.546;2023-04-27T11:04:52;76637.28;;;-147.06;32.79
54453;BME280;40363;52.270;10.546;2023-04-27T11:07:23;76651.66;;;-147.06;32.30
54453;BME280;40363;52.270;10.546;2023-04-27T11:09:50;76729.78;;;-147.06;33.27
54453;BME280;40363;52.270;10.546;2023-04-27T11:12:16;76748.28;;;-147.06;34.24
54453;BME280;40363;52.270;10.546;2023-04-27T11:14:44;76754.44;;;-147.06;34.21
54453;BME280;40363;52.270;10.546;2023-04-27T11:17:12;76760.63;;;-147.06;33.98
54453;BME280;40363;52.270;10.546;2023-04-27T11:19:45;76783.22;;;-147.06;34.33
54453;BME280;40363;52.270;10.546;2023-04-27T11:22:13;76764.72;;;-147.06;34.45
54453;BME280;40363;52.270;10.546;2023-04-27T11:24:49;76756.50;;;-147.06;33.87
54453;BME280;40363;52.270;10.546;2023-04-27T11:27:16;76740.06;;;-147.06;33.92
54453;BME280;40363;52.270;10.546;2023-04-27T11:29:44;76698.94;;;-147.06;33.06
54453;BME280;40363;52.270;10.546;2023-04-27T11:32:17;76670.16;;;-147.06;33.04
54453;BME280;40363;52.270;10.546;2023-04-27T11:34:48;76678.41;;;-147.06;33.20
54453;BME280;40363;52.270;10.546;2023-04-27T11:37:20;76711.28;;;-147.06;32.76
54453;BME280;40363;52.270;10.546;2023-04-27T11:39:48;76723.63;;;-147.06;32.95
54453;BME280;40363;52.270;10.546;2023-04-27T11:42:16;76748.28;;;-147.06;33.11
54453;BME280;40363;52.270;10.546;2023-04-27T11:44:51;76830.50;;;-147.06;33.48
54453;BME280;40363;52.270;10.546;2023-04-27T11:47:18;76844.88;;;-147.06;34.01
54453;BME280;40363;52.270;10.546;2023-04-27T11:49:47;76894.22;;;-147.06;34.03
54453;BME280;40363;52.270;10.546;2023-04-27T11:52:14;76873.66;;;-147.06;34.43
54453;BME280;40363;52.270;10.546;2023-04-27T11:54:46;76840.78;;;-147.06;34.94
54453;BME280;40363;52.270;10.546;2023-04-27T11:57:13;76846.94;;;-147.06;35.03
54453;BME280;40363;52.270;10.546;2023-04-27T11:59:39;76859.28;;;-147.06;34.82
54453;BME280;40363;52.270;10.546;2023-04-27T12:02:07;76842.84;;;-147.06;34.43
54453;BME280;40363;52.270;10.546;2023-04-27T12:04:34;76822.28;;;-147.06;34.91
54453;BME280;40363;52.270;10.546;2023-04-27T12:07:01;76814.06;;;-147.06;35.58
54453;BME280;40363;52.270;10.546;2023-04-27T12:09:29;76816.13;;;-147.06;35.63
54453;BME280;40363;52.270;10.546;2023-04-27T12:11:55;76812.00;;;-147.06;35.34
54453;BME280;40363;52.270;10.546;2023-04-27T12:14:22;76812.00;;;-147.06;35.46
54453;BME280;40363;52.270;10.546;2023-04-27T12:16:49;76781.16;;;-147.06;34.88
54453;BME280;40363;52.270;10.546;2023-04-27T12:19:19;76762.66;;;-147.06;33.48
54453;BME280;40363;52.270;10.546;2023-04-27T12:21:48;76797.63;;;-147.06;32.73
54453;BME280;40363;52.270;10.546;2023-04-27T12:24:16;76760.63;;;-147.06;32.44
54453;BME280;40363;52.270;10.546;2023-04-27T12:26:43;76752.38;;;-147.06;31.91
54453;BME280;40363;52.270;10.546;2023-04-27T12:29:10;76758.56;;;-147.06;32.81
54453;BME280;40363;52.270;10.546;2023-04-27T12:31:36;76772.94;;;-147.06;33.35
54453;BME280;40363;52.270;10.546;2023-04-27T12:34:05;76758.56;;;-147.06;33.12
54453;BME280;40363;52.270;10.546;2023-04-27T12:36:33;76785.28;;;-147.06;33.16
54453;BME280;40363;52.270;10.546;2023-04-27T12:39:12;76805.84;;;-147.06;33.32
54453;BME280;40363;52.270;10.546;2023-04-27T12:41:40;76775.00;;;-147.06;34.08